METAR stanice u blizini

 

LYBE - Beograd / Surčin, Srbija
Ažurirano: 06/08/2021 02:00
Vedro
Vedro
 Pravac vetra Z
Vetar: Z 13 km/h
Temperatura: 18°C
Tačka rose: 16°C
Vlažnost: 88%
Pritisak: 1008 hPa
Pregled: Vedro
Vidljivost: greater than 10 km
2021/08/06 00:00 LYBE 060000Z 27007KT CAVOK 18/16 Q1008 NOSIG
LYBT - Beograd / Batajnica, Srbija
Ažurirano: 06/08/2021 02:00
Vedro
Vedro
 Pravac vetra JZ
Vetar: JZ 7 km/h
Temperatura: 17°C
Tačka rose: 17°C
Vlažnost: 100%
Pritisak: 1008 hPa
Pregled: Vedro
Vidljivost: greater than 10 km
2021/08/06 00:00 LYBT 060000Z 22004KT CAVOK 17/17 Q1008 NOSIG
LYVR - Vršac, Srbija
Ažurirano: 06/08/2021 02:00
Partly Cloudy
Partly Cloudy
 Pravac vetra ZSZ
Vetar: ZSZ 15 km/h
Temperatura: 18°C
Tačka rose: 17°C
Vlažnost: 94%
Pritisak: 1007 hPa
Oblaci: Partly Cloudy
Vidljivost: 10 km
Cloud details: Few Clouds 183 m
Partly Cloudy 488 m
2021/08/06 00:00 LYVR 060000Z AUTO 29008KT 9999 FEW006/// SCT016/// 18/17 Q1007
 
LYKV - Lađevci, Srbija
Ažurirano: 06/08/2021 02:00
Partly Cloudy
Partly Cloudy
 Pravac vetra ZSZ
Vetar: ZSZ 13 km/h
Temperatura: 21°C
Tačka rose: 16°C
Vlažnost: 73%
Pritisak: 1008 hPa
Oblaci: Partly Cloudy
Vidljivost: 10 km
Cloud details: Partly Cloudy 1311 m
2021/08/06 00:00 LYKV 060000Z 30007KT 260V330 9999 SCT043 21/16 Q1008 NOSIG
LYNI - Niš, Srbija
Ažurirano: 06/08/2021 02:00
Vedro
Vedro
 Pravac vetra SSZ
Vetar: SSZ 19 km/h
Temperatura: 20°C
Tačka rose: 14°C
Vlažnost: 69%
Pritisak: 1006 hPa
Pregled: Vedro
Vidljivost: greater than 10 km
2021/08/06 00:00 LYNI 060000Z 33010KT CAVOK 20/14 Q1006 NOSIG
BKPR - Priština, Srbija
Ažurirano: 06/08/2021 02:30
Partly Cloudy
Partly Cloudy
 Pravac vetra ZJZ
Vetar: ZJZ 20 km/h
Temperatura: 24°C
Tačka rose: 13°C
Vlažnost: 50%
Pritisak: 1007 hPa
Oblaci: Partly Cloudy
Vidljivost: 10 km
Cloud details: Few Clouds 1524 m
Partly Cloudy 2438 m
2021/08/06 00:30 BKPR 060030Z 24011KT 9999 FEW050 SCT080 24/13 Q1007 NOSIG
 
LHPP - Pecs / Pogany, Hungary
Ažurirano: 06/08/2021 01:45
Vedro
Vedro
 Pravac vetra ZSZ
Vetar: ZSZ 9 km/h
Temperatura: 15°C
Tačka rose: 15°C
Vlažnost: 100%
Pritisak: 1008 hPa
Pregled: Vedro
Vidljivost: greater than 10 km
2021/08/05 23:45 LHPP 052345Z AUTO 29005KT CAVOK 15/15 Q1008
LHUD - Szeged, Hungary
Ažurirano: 04/07/2019 01:45
NOT Current
Vedro
Vedro
 Pravac vetra S
Vetar: S 7 km/h
Temperatura: 18°C
Tačka rose: 13°C
Vlažnost: 73%
Pritisak: 1019 hPa
Pregled: Vedro
Vidljivost: greater than 10 km
2019/07/03 23:45 LHUD 032345Z 35004KT CAVOK 18/13 Q1019
LRTR - Timisoara, Romania
Ažurirano: 06/08/2021 02:00
Few Clouds
Few Clouds
 Pravac vetra Z
Vetar: Z 15 km/h
Temperatura: 16°C
Tačka rose: 16°C
Vlažnost: 100%
Pritisak: 1006 hPa
Oblaci: Few Clouds
Vidljivost: 10 km
Cloud details: Few Clouds 762 m
2021/08/06 00:00 LRTR 060000Z 27008KT 9999 FEW025 16/16 Q1006 R11/290095 NOSIG
 
LRCV - Craiova, Romania
Ažurirano: 06/08/2021 02:00
Vedro
Vedro
 Pravac vetra ZJZ
Vetar: ZJZ 7 km/h
Temperatura: 21°C
Tačka rose: 13°C
Vlažnost: 60%
Pritisak: 1004 hPa
Pregled: Vedro
Vidljivost: greater than 10 km
2021/08/06 00:00 LRCV 060000Z 25004KT CAVOK 21/13 Q1004
LBSF - Sofia, Bulgaria
Ažurirano: 06/08/2021 02:00
Vedro
Vedro
 Pravac vetra Z
Vetar: Z 11 km/h
Temperatura: 23°C
Tačka rose: 14°C
Vlažnost: 57%
Pritisak: 1007 hPa
Pregled: Vedro
Vidljivost: greater than 10 km
2021/08/06 00:00 LBSF 060000Z 27006KT CAVOK 23/14 Q1007 NOSIG
LWSK - Skoplje, Makedonija
Ažurirano: 06/08/2021 02:30
Mostly Cloudy
Mostly Cloudy
 Pravac vetra calm
Vetar: Tišina
Temperatura: 26°C
Tačka rose: 14°C
Vlažnost: 48%
Pritisak: 1005 hPa
Oblaci: Mostly Cloudy
Vidljivost: 10 km
Cloud details: Mostly Cloudy 2621 m
2021/08/06 00:30 LWSK 060030Z 00000KT 9999 BKN086 26/14 Q1005 NOSIG
 
LYPG - Podgorica, Crna Gora
Ažurirano: 06/08/2021 02:00
Vedro
Vedro
 Pravac vetra S
Vetar: S 7 km/h
Temperatura: 24°C
Tačka rose: 16°C
Vlažnost: 61%
Pritisak: 1006 hPa
Pregled: Vedro
Vidljivost: greater than 10 km
2021/08/06 00:00 LYPG 060000Z 35004KT 300V010 CAVOK 24/16 Q1006 NOSIG
LQSA - Sarajevo, Bosna i Hercegovina
Ažurirano: 06/08/2021 02:00
Vedro
Vedro
 Pravac vetra varies
Vetar: varies 4 km/h
Temperatura: 15°C
Tačka rose: 13°C
Vlažnost: 88%
Pritisak: 1009 hPa
Pregled: Vedro
Vidljivost: greater than 10 km
2021/08/06 00:00 LQSA 060000Z VRB02KT CAVOK 15/13 Q1009
LDOS - Osijek, Hrvatksa
Ažurirano: 06/08/2021 02:00
Vedro
Vedro
 Pravac vetra Z
Vetar: Z 7 km/h
Temperatura: 14°C
Tačka rose: 14°C
Vlažnost: 100%
Pritisak: 1008 hPa
Pregled: Vedro
Vidljivost: greater than 10 km
2021/08/06 00:00 LDOS 060000Z 26004KT CAVOK 14/14 Q1008